sensor_id;sensor_type;location;lat;lon;timestamp;temperature;humidity
67182;DHT22;54114;53.524;49.396;2023-04-30T00:01:29;20.60;35.90
67182;DHT22;54114;53.524;49.396;2023-04-30T00:04:01;20.60;35.90
67182;DHT22;54114;53.524;49.396;2023-04-30T00:06:36;20.70;35.90
67182;DHT22;54114;53.524;49.396;2023-04-30T00:09:05;20.70;35.90
67182;DHT22;54114;53.524;49.396;2023-04-30T00:11:37;20.60;35.90
67182;DHT22;54114;53.524;49.396;2023-04-30T00:14:09;20.60;35.80
67182;DHT22;54114;53.524;49.396;2023-04-30T00:16:38;20.60;35.90
67182;DHT22;54114;53.524;49.396;2023-04-30T00:19:09;20.60;35.80
67182;DHT22;54114;53.524;49.396;2023-04-30T00:21:43;20.50;35.80
67182;DHT22;54114;53.524;49.396;2023-04-30T00:24:10;20.40;35.70
67182;DHT22;54114;53.524;49.396;2023-04-30T00:26:42;20.40;35.70
67182;DHT22;54114;53.524;49.396;2023-04-30T00:29:12;20.40;35.60
67182;DHT22;54114;53.524;49.396;2023-04-30T00:31:39;20.30;35.50
67182;DHT22;54114;53.524;49.396;2023-04-30T00:34:12;20.40;35.50
67182;DHT22;54114;53.524;49.396;2023-04-30T00:36:42;20.40;35.40
67182;DHT22;54114;53.524;49.396;2023-04-30T00:39:15;20.40;35.30
67182;DHT22;54114;53.524;49.396;2023-04-30T00:41:48;20.40;35.30
67182;DHT22;54114;53.524;49.396;2023-04-30T00:44:21;20.30;35.20
67182;DHT22;54114;53.524;49.396;2023-04-30T00:46:56;20.30;35.90
67182;DHT22;54114;53.524;49.396;2023-04-30T00:49:25;20.40;35.30
67182;DHT22;54114;53.524;49.396;2023-04-30T00:51:57;20.40;35.20
67182;DHT22;54114;53.524;49.396;2023-04-30T00:54:26;20.50;35.20
67182;DHT22;54114;53.524;49.396;2023-04-30T00:56:53;20.50;35.20
67182;DHT22;54114;53.524;49.396;2023-04-30T00:59:20;20.50;35.20
67182;DHT22;54114;53.524;49.396;2023-04-30T01:01:49;20.60;35.20
67182;DHT22;54114;53.524;49.396;2023-04-30T01:04:18;20.60;35.20
67182;DHT22;54114;53.524;49.396;2023-04-30T01:06:46;20.50;35.20
67182;DHT22;54114;53.524;49.396;2023-04-30T01:09:15;20.50;35.20
67182;DHT22;54114;53.524;49.396;2023-04-30T01:18:04;20.30;35.40
67182;DHT22;54114;53.524;49.396;2023-04-30T01:20:38;20.30;35.60
67182;DHT22;54114;53.524;49.396;2023-04-30T01:29:18;20.30;35.50
67182;DHT22;54114;53.524;49.396;2023-04-30T01:31:47;20.30;35.20
67182;DHT22;54114;53.524;49.396;2023-04-30T01:34:14;20.30;35.10
67182;DHT22;54114;53.524;49.396;2023-04-30T01:37:14;20.20;34.90
67182;DHT22;54114;53.524;49.396;2023-04-30T01:39:46;20.30;34.80
67182;DHT22;54114;53.524;49.396;2023-04-30T01:42:29;20.40;34.80
67182;DHT22;54114;53.524;49.396;2023-04-30T01:46:07;20.40;34.60
67182;DHT22;54114;53.524;49.396;2023-04-30T01:51:43;20.50;34.30
67182;DHT22;54114;53.524;49.396;2023-04-30T01:54:21;20.60;34.20
67182;DHT22;54114;53.524;49.396;2023-04-30T01:57:15;20.60;34.10
67182;DHT22;54114;53.524;49.396;2023-04-30T01:59:51;20.60;34.10
67182;DHT22;54114;53.524;49.396;2023-04-30T02:02:21;20.70;34.10
67182;DHT22;54114;53.524;49.396;2023-04-30T02:04:50;20.80;34.00
67182;DHT22;54114;53.524;49.396;2023-04-30T02:07:47;20.90;33.90
67182;DHT22;54114;53.524;49.396;2023-04-30T02:10:17;21.10;33.80
67182;DHT22;54114;53.524;49.396;2023-04-30T02:12:46;21.10;33.60
67182;DHT22;54114;53.524;49.396;2023-04-30T02:15:18;21.20;33.50
67182;DHT22;54114;53.524;49.396;2023-04-30T02:17:51;21.30;33.40
67182;DHT22;54114;53.524;49.396;2023-04-30T02:20:20;21.40;33.30
67182;DHT22;54114;53.524;49.396;2023-04-30T02:22:50;21.50;33.20
67182;DHT22;54114;53.524;49.396;2023-04-30T02:25:21;21.70;33.20
67182;DHT22;54114;53.524;49.396;2023-04-30T02:27:56;21.70;33.00
67182;DHT22;54114;53.524;49.396;2023-04-30T02:30:25;21.90;32.90
67182;DHT22;54114;53.524;49.396;2023-04-30T02:32:56;22.00;32.80
67182;DHT22;54114;53.524;49.396;2023-04-30T02:35:25;22.00;32.70
67182;DHT22;54114;53.524;49.396;2023-04-30T02:37:53;22.10;32.70
67182;DHT22;54114;53.524;49.396;2023-04-30T02:40:25;22.10;32.70
67182;DHT22;54114;53.524;49.396;2023-04-30T02:42:56;22.30;32.60
67182;DHT22;54114;53.524;49.396;2023-04-30T02:45:32;22.40;32.50
67182;DHT22;54114;53.524;49.396;2023-04-30T02:48:01;22.50;32.30
67182;DHT22;54114;53.524;49.396;2023-04-30T02:50:30;22.60;32.30
67182;DHT22;54114;53.524;49.396;2023-04-30T02:52:57;22.80;32.20
67182;DHT22;54114;53.524;49.396;2023-04-30T02:55:26;23.00;32.00
67182;DHT22;54114;53.524;49.396;2023-04-30T02:57:58;23.10;31.70
67182;DHT22;54114;53.524;49.396;2023-04-30T03:00:27;23.10;31.40
67182;DHT22;54114;53.524;49.396;2023-04-30T03:02:54;23.20;31.40
67182;DHT22;54114;53.524;49.396;2023-04-30T03:05:23;23.20;31.20
67182;DHT22;54114;53.524;49.396;2023-04-30T03:07:49;23.30;31.00
67182;DHT22;54114;53.524;49.396;2023-04-30T03:10:19;23.40;31.00
67182;DHT22;54114;53.524;49.396;2023-04-30T03:12:50;23.50;30.90
67182;DHT22;54114;53.524;49.396;2023-04-30T03:15:19;23.60;30.80
67182;DHT22;54114;53.524;49.396;2023-04-30T03:17:46;23.60;30.70
67182;DHT22;54114;53.524;49.396;2023-04-30T03:20:13;23.70;30.50
67182;DHT22;54114;53.524;49.396;2023-04-30T03:22:42;23.80;30.30
67182;DHT22;54114;53.524;49.396;2023-04-30T03:25:14;23.90;30.30
67182;DHT22;54114;53.524;49.396;2023-04-30T03:27:43;24.00;30.10
67182;DHT22;54114;53.524;49.396;2023-04-30T03:30:12;24.20;30.00
67182;DHT22;54114;53.524;49.396;2023-04-30T03:32:44;24.40;29.90
67182;DHT22;54114;53.524;49.396;2023-04-30T03:35:13;24.60;29.70
67182;DHT22;54114;53.524;49.396;2023-04-30T03:37:43;24.70;29.70
67182;DHT22;54114;53.524;49.396;2023-04-30T03:40:15;24.90;29.60
67182;DHT22;54114;53.524;49.396;2023-04-30T03:42:44;25.00;29.40
67182;DHT22;54114;53.524;49.396;2023-04-30T03:45:16;25.30;29.20
67182;DHT22;54114;53.524;49.396;2023-04-30T03:47:46;25.40;29.00
67182;DHT22;54114;53.524;49.396;2023-04-30T03:50:20;25.50;28.90
67182;DHT22;54114;53.524;49.396;2023-04-30T03:52:47;25.70;29.30
67182;DHT22;54114;53.524;49.396;2023-04-30T03:55:19;25.90;28.60
67182;DHT22;54114;53.524;49.396;2023-04-30T03:57:46;26.10;28.40
67182;DHT22;54114;53.524;49.396;2023-04-30T04:00:16;26.10;28.30
67182;DHT22;54114;53.524;49.396;2023-04-30T04:02:44;26.20;28.10
67182;DHT22;54114;53.524;49.396;2023-04-30T04:05:14;26.40;28.00
67182;DHT22;54114;53.524;49.396;2023-04-30T04:07:40;26.60;27.90
67182;DHT22;54114;53.524;49.396;2023-04-30T04:10:09;26.80;28.00
67182;DHT22;54114;53.524;49.396;2023-04-30T04:12:36;27.00;27.80
67182;DHT22;54114;53.524;49.396;2023-04-30T04:15:06;27.30;27.70
67182;DHT22;54114;53.524;49.396;2023-04-30T04:17:35;27.60;27.60
67182;DHT22;54114;53.524;49.396;2023-04-30T04:20:02;27.70;27.20
67182;DHT22;54114;53.524;49.396;2023-04-30T04:22:31;27.70;27.20
67182;DHT22;54114;53.524;49.396;2023-04-30T04:24:57;27.80;27.30
67182;DHT22;54114;53.524;49.396;2023-04-30T04:27:24;28.00;27.10
67182;DHT22;54114;53.524;49.396;2023-04-30T04:29:51;28.10;27.00
67182;DHT22;54114;53.524;49.396;2023-04-30T04:32:18;28.30;26.90
67182;DHT22;54114;53.524;49.396;2023-04-30T04:34:47;28.50;26.70
67182;DHT22;54114;53.524;49.396;2023-04-30T04:37:14;28.60;26.50
67182;DHT22;54114;53.524;49.396;2023-04-30T04:39:42;28.80;26.50
67182;DHT22;54114;53.524;49.396;2023-04-30T04:42:09;28.90;26.40
67182;DHT22;54114;53.524;49.396;2023-04-30T04:44:36;29.10;26.70
67182;DHT22;54114;53.524;49.396;2023-04-30T04:47:04;29.20;26.20
67182;DHT22;54114;53.524;49.396;2023-04-30T04:49:30;29.50;26.20
67182;DHT22;54114;53.524;49.396;2023-04-30T04:51:57;29.60;26.10
67182;DHT22;54114;53.524;49.396;2023-04-30T04:54:24;29.90;25.90
67182;DHT22;54114;53.524;49.396;2023-04-30T04:56:53;30.20;25.80
67182;DHT22;54114;53.524;49.396;2023-04-30T04:59:22;30.50;25.60
67182;DHT22;54114;53.524;49.396;2023-04-30T05:01:49;30.60;25.40
67182;DHT22;54114;53.524;49.396;2023-04-30T05:04:18;30.90;25.30
67182;DHT22;54114;53.524;49.396;2023-04-30T05:06:45;31.10;25.10
67182;DHT22;54114;53.524;49.396;2023-04-30T05:09:13;31.30;25.00
67182;DHT22;54114;53.524;49.396;2023-04-30T05:11:40;31.50;25.40
67182;DHT22;54114;53.524;49.396;2023-04-30T05:14:10;31.70;24.80
67182;DHT22;54114;53.524;49.396;2023-04-30T05:16:37;31.80;24.60
67182;DHT22;54114;53.524;49.396;2023-04-30T05:19:04;32.00;24.60
67182;DHT22;54114;53.524;49.396;2023-04-30T05:21:33;32.30;24.50
67182;DHT22;54114;53.524;49.396;2023-04-30T05:24:03;32.40;24.40
67182;DHT22;54114;53.524;49.396;2023-04-30T05:26:32;32.60;24.30
67182;DHT22;54114;53.524;49.396;2023-04-30T05:29:02;32.70;24.20
67182;DHT22;54114;53.524;49.396;2023-04-30T05:31:34;32.80;24.10
67182;DHT22;54114;53.524;49.396;2023-04-30T05:34:08;32.80;24.10
67182;DHT22;54114;53.524;49.396;2023-04-30T05:36:37;33.00;24.00
67182;DHT22;54114;53.524;49.396;2023-04-30T05:39:03;33.20;24.00
67182;DHT22;54114;53.524;49.396;2023-04-30T05:41:32;33.40;23.80
67182;DHT22;54114;53.524;49.396;2023-04-30T05:43:59;33.60;23.80
67182;DHT22;54114;53.524;49.396;2023-04-30T05:46:30;33.80;23.60
67182;DHT22;54114;53.524;49.396;2023-04-30T05:48:59;33.90;23.60
67182;DHT22;54114;53.524;49.396;2023-04-30T05:51:25;34.10;23.40
67182;DHT22;54114;53.524;49.396;2023-04-30T05:53:59;34.40;23.30
67182;DHT22;54114;53.524;49.396;2023-04-30T05:56:28;34.60;23.00
67182;DHT22;54114;53.524;49.396;2023-04-30T05:58:54;34.80;22.90
67182;DHT22;54114;53.524;49.396;2023-04-30T06:01:24;35.00;22.80
67182;DHT22;54114;53.524;49.396;2023-04-30T06:03:53;35.30;22.60
67182;DHT22;54114;53.524;49.396;2023-04-30T06:06:23;35.50;22.60
67182;DHT22;54114;53.524;49.396;2023-04-30T06:08:50;35.70;22.30
67182;DHT22;54114;53.524;49.396;2023-04-30T06:11:16;35.90;22.30
67182;DHT22;54114;53.524;49.396;2023-04-30T06:13:46;36.10;22.10
67182;DHT22;54114;53.524;49.396;2023-04-30T06:16:13;36.30;22.00
67182;DHT22;54114;53.524;49.396;2023-04-30T06:18:42;36.70;22.00
67182;DHT22;54114;53.524;49.396;2023-04-30T06:21:09;37.30;21.30
67182;DHT22;54114;53.524;49.396;2023-04-30T06:23:41;36.90;21.40
67182;DHT22;54114;53.524;49.396;2023-04-30T06:26:08;36.50;21.50
67182;DHT22;54114;53.524;49.396;2023-04-30T06:28:35;36.50;21.70
67182;DHT22;54114;53.524;49.396;2023-04-30T06:31:01;36.50;21.70
67182;DHT22;54114;53.524;49.396;2023-04-30T06:33:29;36.60;21.60
67182;DHT22;54114;53.524;49.396;2023-04-30T06:35:56;36.70;21.40
67182;DHT22;54114;53.524;49.396;2023-04-30T06:38:23;36.60;21.40
67182;DHT22;54114;53.524;49.396;2023-04-30T06:40:49;36.50;21.80
67182;DHT22;54114;53.524;49.396;2023-04-30T06:43:20;36.60;21.20
67182;DHT22;54114;53.524;49.396;2023-04-30T06:45:50;36.90;21.20
67182;DHT22;54114;53.524;49.396;2023-04-30T06:48:16;37.00;21.00
67182;DHT22;54114;53.524;49.396;2023-04-30T06:50:45;37.20;20.90
67182;DHT22;54114;53.524;49.396;2023-04-30T06:53:17;37.40;20.90
67182;DHT22;54114;53.524;49.396;2023-04-30T06:55:48;37.50;21.30
67182;DHT22;54114;53.524;49.396;2023-04-30T06:58:23;37.70;20.70
67182;DHT22;54114;53.524;49.396;2023-04-30T07:00:50;37.90;20.50
67182;DHT22;54114;53.524;49.396;2023-04-30T07:03:17;38.00;20.40
67182;DHT22;54114;53.524;49.396;2023-04-30T07:05:49;38.10;20.30
67182;DHT22;54114;53.524;49.396;2023-04-30T07:08:24;38.30;20.30
67182;DHT22;54114;53.524;49.396;2023-04-30T07:10:53;38.40;20.40
67182;DHT22;54114;53.524;49.396;2023-04-30T07:13:23;38.50;20.20
67182;DHT22;54114;53.524;49.396;2023-04-30T07:15:56;38.70;20.20
67182;DHT22;54114;53.524;49.396;2023-04-30T07:18:28;38.80;20.20
67182;DHT22;54114;53.524;49.396;2023-04-30T07:20:58;39.00;20.20
67182;DHT22;54114;53.524;49.396;2023-04-30T07:23:34;39.20;20.10
67182;DHT22;54114;53.524;49.396;2023-04-30T07:26:01;39.20;19.90
67182;DHT22;54114;53.524;49.396;2023-04-30T07:28:30;39.40;19.90
67182;DHT22;54114;53.524;49.396;2023-04-30T07:30:56;39.50;19.90
67182;DHT22;54114;53.524;49.396;2023-04-30T07:33:26;39.70;19.90
67182;DHT22;54114;53.524;49.396;2023-04-30T07:35:53;39.70;19.80
67182;DHT22;54114;53.524;49.396;2023-04-30T07:38:26;39.80;19.80
67182;DHT22;54114;53.524;49.396;2023-04-30T07:40:54;39.70;19.70
67182;DHT22;54114;53.524;49.396;2023-04-30T07:43:20;39.70;19.80
67182;DHT22;54114;53.524;49.396;2023-04-30T07:45:50;39.70;19.60
67182;DHT22;54114;53.524;49.396;2023-04-30T07:48:18;39.70;19.50
67182;DHT22;54114;53.524;49.396;2023-04-30T07:50:47;39.90;19.60
67182;DHT22;54114;53.524;49.396;2023-04-30T07:53:16;39.90;19.60
67182;DHT22;54114;53.524;49.396;2023-04-30T07:55:46;39.90;19.40
67182;DHT22;54114;53.524;49.396;2023-04-30T07:58:12;39.90;19.40
67182;DHT22;54114;53.524;49.396;2023-04-30T08:00:39;40.10;19.50
67182;DHT22;54114;53.524;49.396;2023-04-30T08:03:06;40.20;19.40
67182;DHT22;54114;53.524;49.396;2023-04-30T08:05:33;40.20;19.40
67182;DHT22;54114;53.524;49.396;2023-04-30T08:08:02;40.20;19.40
67182;DHT22;54114;53.524;49.396;2023-04-30T08:10:30;40.00;19.40
67182;DHT22;54114;53.524;49.396;2023-04-30T08:12:56;39.80;19.40
67182;DHT22;54114;53.524;49.396;2023-04-30T08:15:23;39.60;19.40
67182;DHT22;54114;53.524;49.396;2023-04-30T08:17:50;39.50;19.40
67182;DHT22;54114;53.524;49.396;2023-04-30T08:20:17;39.80;19.40
67182;DHT22;54114;53.524;49.396;2023-04-30T08:22:45;40.00;19.40
67182;DHT22;54114;53.524;49.396;2023-04-30T08:25:12;40.10;19.40
67182;DHT22;54114;53.524;49.396;2023-04-30T08:27:38;40.00;19.30
67182;DHT22;54114;53.524;49.396;2023-04-30T08:30:06;39.90;19.40
67182;DHT22;54114;53.524;49.396;2023-04-30T08:32:34;39.90;19.30
67182;DHT22;54114;53.524;49.396;2023-04-30T08:35:05;39.70;19.30
67182;DHT22;54114;53.524;49.396;2023-04-30T08:37:35;39.50;19.30
67182;DHT22;54114;53.524;49.396;2023-04-30T08:40:02;39.30;19.40
67182;DHT22;54114;53.524;49.396;2023-04-30T08:42:35;39.30;19.50
67182;DHT22;54114;53.524;49.396;2023-04-30T08:45:03;39.20;19.40
67182;DHT22;54114;53.524;49.396;2023-04-30T08:47:30;39.20;19.40
67182;DHT22;54114;53.524;49.396;2023-04-30T08:49:59;39.20;19.40
67182;DHT22;54114;53.524;49.396;2023-04-30T08:52:27;39.20;19.50
67182;DHT22;54114;53.524;49.396;2023-04-30T08:54:56;39.40;19.50
67182;DHT22;54114;53.524;49.396;2023-04-30T08:57:24;39.60;19.60
67182;DHT22;54114;53.524;49.396;2023-04-30T08:59:52;39.60;19.40
67182;DHT22;54114;53.524;49.396;2023-04-30T09:02:19;39.60;19.50
67182;DHT22;54114;53.524;49.396;2023-04-30T09:04:46;39.50;19.40
67182;DHT22;54114;53.524;49.396;2023-04-30T09:07:14;39.60;19.40
67182;DHT22;54114;53.524;49.396;2023-04-30T09:09:43;39.70;19.30
67182;DHT22;54114;53.524;49.396;2023-04-30T09:12:17;39.90;19.30
67182;DHT22;54114;53.524;49.396;2023-04-30T09:14:56;40.00;19.40
67182;DHT22;54114;53.524;49.396;2023-04-30T09:17:25;40.30;19.40
67182;DHT22;54114;53.524;49.396;2023-04-30T09:19:52;40.60;19.90
67182;DHT22;54114;53.524;49.396;2023-04-30T09:22:22;41.10;19.30
67182;DHT22;54114;53.524;49.396;2023-04-30T09:24:50;41.40;19.10
67182;DHT22;54114;53.524;49.396;2023-04-30T09:27:18;41.50;19.10
67182;DHT22;54114;53.524;49.396;2023-04-30T09:29:46;41.70;19.00
67182;DHT22;54114;53.524;49.396;2023-04-30T09:32:15;41.80;19.00
67182;DHT22;54114;53.524;49.396;2023-04-30T09:34:45;41.80;18.90
67182;DHT22;54114;53.524;49.396;2023-04-30T09:37:11;41.50;18.80
67182;DHT22;54114;53.524;49.396;2023-04-30T09:39:49;41.10;19.00
67182;DHT22;54114;53.524;49.396;2023-04-30T09:42:17;40.90;19.10
67182;DHT22;54114;53.524;49.396;2023-04-30T09:44:45;40.80;19.00
67182;DHT22;54114;53.524;49.396;2023-04-30T09:47:19;40.90;19.20
67182;DHT22;54114;53.524;49.396;2023-04-30T09:49:50;41.00;19.00
67182;DHT22;54114;53.524;49.396;2023-04-30T09:52:18;41.10;19.00
67182;DHT22;54114;53.524;49.396;2023-04-30T09:54:46;41.10;18.90
67182;DHT22;54114;53.524;49.396;2023-04-30T09:57:14;41.10;18.90
67182;DHT22;54114;53.524;49.396;2023-04-30T09:59:45;41.10;18.80
67182;DHT22;54114;53.524;49.396;2023-04-30T10:02:15;40.90;18.90
67182;DHT22;54114;53.524;49.396;2023-04-30T10:04:43;40.70;18.90
67182;DHT22;54114;53.524;49.396;2023-04-30T10:10:01;40.30;19.00
67182;DHT22;54114;53.524;49.396;2023-04-30T10:12:50;40.20;19.20
67182;DHT22;54114;53.524;49.396;2023-04-30T10:15:36;40.30;19.30
67182;DHT22;54114;53.524;49.396;2023-04-30T10:18:08;40.20;19.40
67182;DHT22;54114;53.524;49.396;2023-04-30T10:20:40;40.00;19.40
67182;DHT22;54114;53.524;49.396;2023-04-30T10:23:07;39.80;19.50
67182;DHT22;54114;53.524;49.396;2023-04-30T10:25:33;39.70;19.70
67182;DHT22;54114;53.524;49.396;2023-04-30T10:28:03;39.60;19.70
67182;DHT22;54114;53.524;49.396;2023-04-30T10:30:33;39.50;19.60
67182;DHT22;54114;53.524;49.396;2023-04-30T10:35:55;39.30;19.80
67182;DHT22;54114;53.524;49.396;2023-04-30T10:38:29;39.10;20.00
67182;DHT22;54114;53.524;49.396;2023-04-30T10:41:06;38.90;20.20
67182;DHT22;54114;53.524;49.396;2023-04-30T10:43:35;38.70;20.30
67182;DHT22;54114;53.524;49.396;2023-04-30T10:46:05;38.50;20.40
67182;DHT22;54114;53.524;49.396;2023-04-30T10:48:39;38.30;20.60
67182;DHT22;54114;53.524;49.396;2023-04-30T10:51:10;38.20;20.60
67182;DHT22;54114;53.524;49.396;2023-04-30T10:53:41;38.10;20.80
67182;DHT22;54114;53.524;49.396;2023-04-30T10:56:09;37.90;20.90
67182;DHT22;54114;53.524;49.396;2023-04-30T10:58:41;37.70;21.00
67182;DHT22;54114;53.524;49.396;2023-04-30T11:01:12;37.50;21.10
67182;DHT22;54114;53.524;49.396;2023-04-30T11:04:07;37.50;21.30
67182;DHT22;54114;53.524;49.396;2023-04-30T11:07:07;37.50;21.30
67182;DHT22;54114;53.524;49.396;2023-04-30T11:09:43;37.60;21.40
67182;DHT22;54114;53.524;49.396;2023-04-30T11:12:20;37.60;21.40
67182;DHT22;54114;53.524;49.396;2023-04-30T11:15:06;37.60;21.50
67182;DHT22;54114;53.524;49.396;2023-04-30T11:17:41;37.70;21.60
67182;DHT22;54114;53.524;49.396;2023-04-30T11:20:25;37.90;21.60
67182;DHT22;54114;53.524;49.396;2023-04-30T11:23:10;38.00;21.50
67182;DHT22;54114;53.524;49.396;2023-04-30T11:25:47;38.10;21.50
67182;DHT22;54114;53.524;49.396;2023-04-30T11:28:20;38.10;21.50
67182;DHT22;54114;53.524;49.396;2023-04-30T11:30:57;38.10;21.60
67182;DHT22;54114;53.524;49.396;2023-04-30T11:33:31;38.00;21.60
67182;DHT22;54114;53.524;49.396;2023-04-30T11:35:59;37.90;21.60
67182;DHT22;54114;53.524;49.396;2023-04-30T11:38:33;37.90;21.70
67182;DHT22;54114;53.524;49.396;2023-04-30T11:41:02;37.90;21.70
67182;DHT22;54114;53.524;49.396;2023-04-30T11:43:31;37.80;21.70
67182;DHT22;54114;53.524;49.396;2023-04-30T11:48:35;37.70;21.90
67182;DHT22;54114;53.524;49.396;2023-04-30T11:51:17;37.50;21.90
67182;DHT22;54114;53.524;49.396;2023-04-30T11:53:49;37.40;22.00
67182;DHT22;54114;53.524;49.396;2023-04-30T11:56:21;37.30;22.00
67182;DHT22;54114;53.524;49.396;2023-04-30T11:58:50;37.10;22.00
67182;DHT22;54114;53.524;49.396;2023-04-30T12:01:19;37.00;22.20
67182;DHT22;54114;53.524;49.396;2023-04-30T12:03:49;37.00;22.90
67182;DHT22;54114;53.524;49.396;2023-04-30T12:06:24;37.00;22.30
67182;DHT22;54114;53.524;49.396;2023-04-30T12:08:56;37.00;22.40
67182;DHT22;54114;53.524;49.396;2023-04-30T12:11:27;37.10;22.40
67182;DHT22;54114;53.524;49.396;2023-04-30T12:13:59;37.20;22.30
67182;DHT22;54114;53.524;49.396;2023-04-30T12:19:20;36.90;22.40
67182;DHT22;54114;53.524;49.396;2023-04-30T12:21:50;36.70;22.60
67182;DHT22;54114;53.524;49.396;2023-04-30T12:24:19;36.50;22.50
67182;DHT22;54114;53.524;49.396;2023-04-30T12:26:49;36.40;22.60
67182;DHT22;54114;53.524;49.396;2023-04-30T12:29:18;36.30;22.60
67182;DHT22;54114;53.524;49.396;2023-04-30T12:31:51;36.10;22.60
67182;DHT22;54114;53.524;49.396;2023-04-30T12:34:19;35.90;22.70
67182;DHT22;54114;53.524;49.396;2023-04-30T12:36:46;35.80;23.30
67182;DHT22;54114;53.524;49.396;2023-04-30T12:39:14;35.70;22.90
67182;DHT22;54114;53.524;49.396;2023-04-30T12:41:42;35.60;23.10
67182;DHT22;54114;53.524;49.396;2023-04-30T12:44:21;35.60;23.10
67182;DHT22;54114;53.524;49.396;2023-04-30T12:46:51;35.80;23.10
67182;DHT22;54114;53.524;49.396;2023-04-30T12:49:29;35.90;23.10
67182;DHT22;54114;53.524;49.396;2023-04-30T12:52:00;36.00;23.30
67182;DHT22;54114;53.524;49.396;2023-04-30T12:54:30;36.20;23.10
67182;DHT22;54114;53.524;49.396;2023-04-30T12:57:06;36.20;23.10
67182;DHT22;54114;53.524;49.396;2023-04-30T12:59:38;36.20;23.60
67182;DHT22;54114;53.524;49.396;2023-04-30T13:02:12;36.10;23.10
67182;DHT22;54114;53.524;49.396;2023-04-30T13:04:43;36.10;23.10
67182;DHT22;54114;53.524;49.396;2023-04-30T13:07:11;36.10;23.10
67182;DHT22;54114;53.524;49.396;2023-04-30T13:09:40;36.00;23.10
67182;DHT22;54114;53.524;49.396;2023-04-30T13:12:11;35.70;23.10
67182;DHT22;54114;53.524;49.396;2023-04-30T13:14:40;35.60;23.30
67182;DHT22;54114;53.524;49.396;2023-04-30T13:17:07;35.60;23.40
67182;DHT22;54114;53.524;49.396;2023-04-30T13:19:41;35.60;23.50
67182;DHT22;54114;53.524;49.396;2023-04-30T13:22:10;35.70;23.40
67182;DHT22;54114;53.524;49.396;2023-04-30T13:24:39;35.80;23.40
67182;DHT22;54114;53.524;49.396;2023-04-30T13:27:11;35.80;23.40
67182;DHT22;54114;53.524;49.396;2023-04-30T13:29:42;36.00;23.40
67182;DHT22;54114;53.524;49.396;2023-04-30T13:32:16;36.00;23.30
67182;DHT22;54114;53.524;49.396;2023-04-30T13:34:48;35.90;23.30
67182;DHT22;54114;53.524;49.396;2023-04-30T13:37:20;35.90;23.40
67182;DHT22;54114;53.524;49.396;2023-04-30T13:39:51;35.80;24.00
67182;DHT22;54114;53.524;49.396;2023-04-30T13:42:21;35.90;23.40
67182;DHT22;54114;53.524;49.396;2023-04-30T13:44:50;35.80;23.40
67182;DHT22;54114;53.524;49.396;2023-04-30T13:47:25;35.60;23.40
67182;DHT22;54114;53.524;49.396;2023-04-30T13:49:56;35.60;23.50
67182;DHT22;54114;53.524;49.396;2023-04-30T13:52:25;35.60;23.60
67182;DHT22;54114;53.524;49.396;2023-04-30T13:54:52;35.70;23.70
67182;DHT22;54114;53.524;49.396;2023-04-30T13:57:24;35.70;23.60
67182;DHT22;54114;53.524;49.396;2023-04-30T13:59:52;35.60;23.70
67182;DHT22;54114;53.524;49.396;2023-04-30T14:02:21;35.50;23.70
67182;DHT22;54114;53.524;49.396;2023-04-30T14:04:50;35.30;23.70
67182;DHT22;54114;53.524;49.396;2023-04-30T14:07:17;35.10;23.80
67182;DHT22;54114;53.524;49.396;2023-04-30T14:09:46;34.80;23.90
67182;DHT22;54114;53.524;49.396;2023-04-30T14:12:12;34.60;24.00
67182;DHT22;54114;53.524;49.396;2023-04-30T14:14:39;34.40;24.00
67182;DHT22;54114;53.524;49.396;2023-04-30T14:17:06;34.20;24.10
67182;DHT22;54114;53.524;49.396;2023-04-30T14:19:33;34.00;24.20
67182;DHT22;54114;53.524;49.396;2023-04-30T14:22:00;33.80;24.30
67182;DHT22;54114;53.524;49.396;2023-04-30T14:24:27;33.70;24.50
67182;DHT22;54114;53.524;49.396;2023-04-30T14:26:53;33.70;24.60
67182;DHT22;54114;53.524;49.396;2023-04-30T14:29:20;33.60;24.60
67182;DHT22;54114;53.524;49.396;2023-04-30T14:31:47;33.50;24.70
67182;DHT22;54114;53.524;49.396;2023-04-30T14:34:14;33.40;24.80
67182;DHT22;54114;53.524;49.396;2023-04-30T14:36:40;33.30;24.80
67182;DHT22;54114;53.524;49.396;2023-04-30T14:39:07;33.30;24.90
67182;DHT22;54114;53.524;49.396;2023-04-30T14:41:35;33.20;25.00
67182;DHT22;54114;53.524;49.396;2023-04-30T14:44:03;33.20;25.00
67182;DHT22;54114;53.524;49.396;2023-04-30T14:46:30;33.20;25.00
67182;DHT22;54114;53.524;49.396;2023-04-30T14:48:58;33.10;25.10
67182;DHT22;54114;53.524;49.396;2023-04-30T14:51:25;33.00;25.10
67182;DHT22;54114;53.524;49.396;2023-04-30T14:53:53;33.00;25.20
67182;DHT22;54114;53.524;49.396;2023-04-30T14:56:20;33.00;25.20
67182;DHT22;54114;53.524;49.396;2023-04-30T14:58:47;32.90;25.20
67182;DHT22;54114;53.524;49.396;2023-04-30T15:01:18;32.90;25.30
67182;DHT22;54114;53.524;49.396;2023-04-30T15:03:45;32.80;25.30
67182;DHT22;54114;53.524;49.396;2023-04-30T15:06:12;32.70;25.30
67182;DHT22;54114;53.524;49.396;2023-04-30T15:08:39;32.70;25.40
67182;DHT22;54114;53.524;49.396;2023-04-30T15:11:06;32.60;25.40
67182;DHT22;54114;53.524;49.396;2023-04-30T15:13:36;32.50;25.50
67182;DHT22;54114;53.524;49.396;2023-04-30T15:16:02;32.40;25.40
67182;DHT22;54114;53.524;49.396;2023-04-30T15:18:30;32.40;25.50
67182;DHT22;54114;53.524;49.396;2023-04-30T15:20:58;32.20;25.50
67182;DHT22;54114;53.524;49.396;2023-04-30T15:23:24;32.20;25.60
67182;DHT22;54114;53.524;49.396;2023-04-30T15:25:51;32.10;25.70
67182;DHT22;54114;53.524;49.396;2023-04-30T15:28:18;32.00;25.70
67182;DHT22;54114;53.524;49.396;2023-04-30T15:30:51;31.90;25.70
67182;DHT22;54114;53.524;49.396;2023-04-30T15:33:17;31.80;25.80
67182;DHT22;54114;53.524;49.396;2023-04-30T15:35:45;31.70;25.80
67182;DHT22;54114;53.524;49.396;2023-04-30T15:38:15;31.60;25.90
67182;DHT22;54114;53.524;49.396;2023-04-30T15:40:41;31.50;25.90
67182;DHT22;54114;53.524;49.396;2023-04-30T15:43:10;31.40;26.00
67182;DHT22;54114;53.524;49.396;2023-04-30T15:45:37;31.30;26.10
67182;DHT22;54114;53.524;49.396;2023-04-30T15:48:10;31.10;26.10
67182;DHT22;54114;53.524;49.396;2023-04-30T15:50:39;31.00;26.30
67182;DHT22;54114;53.524;49.396;2023-04-30T15:53:08;30.90;26.30
67182;DHT22;54114;53.524;49.396;2023-04-30T15:55:37;30.80;26.40
67182;DHT22;54114;53.524;49.396;2023-04-30T15:58:08;30.70;26.50
67182;DHT22;54114;53.524;49.396;2023-04-30T16:00:40;30.50;26.50